Time;durP1;ratioP1;P1;durP2;ratioP2;P2;SDS_P1;SDS_P2;PMS_P1;PMS_P2;Temp;Humidity;BMP_temperature;BMP_pressure;BME280_temperature;BME280_humidity;BME280_pressure;Samples;Min_cycle;Max_cycle;Signal;HPM_P1;HPM_P2
2023/08/18 00:01:39;;;;;;;2.28;1.75;;;;;;;;;;5092490;28;20469;-81
2023/08/18 00:04:05;;;;;;;2.30;1.88;;;;;;;;;;5098861;28;20390;-81
2023/08/18 00:06:31;;;;;;;1.98;1.77;;;;;;;;;;5086361;28;20391;-81
2023/08/18 00:08:57;;;;;;;2.80;2.10;;;;;;;;;;5082741;28;20504;-81
2023/08/18 00:11:23;;;;;;;2.50;1.70;;;;;;;;;;5078971;28;20391;-81
2023/08/18 00:13:49;;;;;;;2.15;1.70;;;;;;;;;;5078777;28;20387;-81
2023/08/18 00:16:15;;;;;;;2.33;2.13;;;;;;;;;;5078636;28;20398;-81
2023/08/18 00:18:41;;;;;;;2.00;1.90;;;;;;;;;;5078449;28;20380;-81
2023/08/18 00:21:07;;;;;;;1.90;1.70;;;;;;;;;;5077551;28;20372;-81
2023/08/18 00:23:33;;;;;;;1.92;1.80;;;;;;;;;;5084622;28;20856;-81
2023/08/18 00:25:59;;;;;;;2.78;1.98;;;;;;;;;;5078097;28;20387;-81
2023/08/18 00:28:25;;;;;;;3.92;2.00;;;;;;;;;;5085313;28;20395;-81
2023/08/18 00:30:51;;;;;;;2.13;1.90;;;;;;;;;;5077859;28;20880;-81
2023/08/18 00:33:17;;;;;;;2.63;2.25;;;;;;;;;;5077684;28;20375;-81
2023/08/18 00:35:43;;;;;;;2.33;2.20;;;;;;;;;;5079366;28;20880;-81
2023/08/18 00:38:09;;;;;;;2.60;1.90;;;;;;;;;;5077598;28;20397;-81
2023/08/18 00:40:35;;;;;;;3.03;1.98;;;;;;;;;;5086302;28;20397;-81
2023/08/18 00:43:04;;;;;;;2.10;1.90;;;;;;;;;;5097709;28;20896;-81
2023/08/18 00:45:30;;;;;;;2.50;2.30;;;;;;;;;;5097855;28;20879;-82
2023/08/18 00:47:56;;;;;;;2.40;2.20;;;;;;;;;;5084161;28;20448;-81
2023/08/18 00:50:23;;;;;;;2.25;1.65;;;;;;;;;;5097883;28;20397;-81
2023/08/18 00:52:56;;;;;;;2.33;1.83;;;;;;;;;;5098218;28;20382;-81
2023/08/18 00:55:22;;;;;;;2.50;2.00;;;;;;;;;;5078062;28;20379;-81
2023/08/18 00:57:48;;;;;;;2.40;2.20;;;;;;;;;;5085981;28;20511;-81
2023/08/18 01:00:14;;;;;;;2.83;2.15;;;;;;;;;;5076689;28;20396;-81
2023/08/18 01:02:40;;;;;;;2.20;2.00;;;;;;;;;;5076635;28;20915;-81
2023/08/18 01:05:06;;;;;;;2.17;1.98;;;;;;;;;;5091518;28;20385;-81
2023/08/18 01:07:32;;;;;;;3.20;2.00;;;;;;;;;;5096356;28;20418;-81
2023/08/18 01:09:58;;;;;;;2.28;1.80;;;;;;;;;;5088363;28;20470;-81
2023/08/18 01:12:29;;;;;;;2.10;1.90;;;;;;;;;;5078395;28;20426;-81
2023/08/18 01:15:10;;;;;;;2.27;2.07;;;;;;;;;;5082496;28;20491;-82
2023/08/18 01:17:46;;;;;;;1.98;1.88;;;;;;;;;;5093607;28;20787;-81
2023/08/18 01:20:12;;;;;;;2.10;1.90;;;;;;;;;;5088574;28;20393;-81
2023/08/18 01:22:40;;;;;;;2.25;2.05;;;;;;;;;;5078553;28;20392;-81
2023/08/18 01:25:06;;;;;;;2.10;1.90;;;;;;;;;;5094670;28;20412;-81
2023/08/18 01:27:33;;;;;;;2.10;1.90;;;;;;;;;;5084933;28;20430;-81
2023/08/18 01:29:59;;;;;;;3.17;2.17;;;;;;;;;;5083324;28;20390;-81
2023/08/18 01:32:28;;;;;;;2.97;1.88;;;;;;;;;;5081103;28;20381;-81
2023/08/18 01:34:55;;;;;;;2.15;1.98;;;;;;;;;;5082844;28;20391;-81
2023/08/18 01:37:22;;;;;;;2.45;1.98;;;;;;;;;;5086891;28;20426;-81
2023/08/18 01:39:50;;;;;;;1.80;1.70;;;;;;;;;;5079009;28;20399;-81
2023/08/18 01:42:16;;;;;;;1.88;1.70;;;;;;;;;;5097537;28;20414;-82
2023/08/18 01:44:42;;;;;;;2.65;1.77;;;;;;;;;;5096368;28;20382;-81
2023/08/18 01:47:08;;;;;;;1.93;1.83;;;;;;;;;;5076822;28;20390;-81
2023/08/18 01:49:34;;;;;;;2.65;2.00;;;;;;;;;;5077914;28;20414;-81
2023/08/18 01:52:00;;;;;;;2.22;1.92;;;;;;;;;;5095411;28;20386;-81
2023/08/18 01:54:26;;;;;;;1.73;1.63;;;;;;;;;;5082697;28;20414;-81
2023/08/18 01:56:52;;;;;;;2.85;1.90;;;;;;;;;;5080144;28;20394;-81
2023/08/18 01:59:18;;;;;;;2.67;1.95;;;;;;;;;;5097701;28;20411;-81
2023/08/18 02:01:44;;;;;;;3.58;1.83;;;;;;;;;;5084414;28;20399;-80
2023/08/18 02:04:10;;;;;;;2.28;2.00;;;;;;;;;;5084440;28;20416;-80
2023/08/18 02:06:36;;;;;;;2.17;1.98;;;;;;;;;;5098365;28;20732;-81
2023/08/18 02:09:03;;;;;;;2.17;1.98;;;;;;;;;;5086661;28;20424;-81
2023/08/18 02:11:29;;;;;;;2.08;1.88;;;;;;;;;;5085476;28;20865;-81
2023/08/18 02:13:55;;;;;;;2.10;1.90;;;;;;;;;;5090283;28;20471;-81
2023/08/18 02:16:21;;;;;;;2.60;2.30;;;;;;;;;;5079850;28;20408;-81
2023/08/18 02:18:50;;;;;;;2.38;1.85;;;;;;;;;;5080154;28;20443;-81
2023/08/18 02:21:16;;;;;;;2.58;1.90;;;;;;;;;;5085992;28;20423;-82
2023/08/18 02:23:42;;;;;;;2.00;1.80;;;;;;;;;;5085779;28;20863;-82
2023/08/18 02:26:08;;;;;;;2.65;2.00;;;;;;;;;;5087213;28;20426;-82
2023/08/18 02:28:34;;;;;;;2.17;1.98;;;;;;;;;;5078340;28;20423;-82
2023/08/18 02:31:02;;;;;;;3.13;2.38;;;;;;;;;;5084726;28;20380;-82
2023/08/18 02:33:28;;;;;;;2.60;2.38;;;;;;;;;;5084680;28;20382;-82
2023/08/18 02:35:54;;;;;;;3.05;2.30;;;;;;;;;;5087266;28;20460;-82
2023/08/18 02:38:20;;;;;;;2.35;2.22;;;;;;;;;;5092613;28;20384;-82
2023/08/18 02:40:46;;;;;;;2.40;2.20;;;;;;;;;;5099481;28;20374;-82
2023/08/18 02:43:13;;;;;;;2.67;2.47;;;;;;;;;;5089255;28;20764;-83
2023/08/18 02:45:39;;;;;;;3.60;3.13;;;;;;;;;;5094491;28;20386;-84
2023/08/18 02:48:06;;;;;;;2.80;2.60;;;;;;;;;;5095524;28;20438;-83
2023/08/18 02:50:32;;;;;;;2.90;2.50;;;;;;;;;;5092129;28;20383;-82
2023/08/18 02:53:03;;;;;;;3.05;2.50;;;;;;;;;;5095532;28;20378;-82
2023/08/18 02:55:29;;;;;;;2.60;2.40;;;;;;;;;;5092713;28;20387;-82
2023/08/18 02:57:55;;;;;;;3.38;2.40;;;;;;;;;;5083947;28;20376;-83
2023/08/18 03:00:21;;;;;;;3.03;2.60;;;;;;;;;;5074807;28;20393;-83
2023/08/18 03:02:49;;;;;;;2.60;2.40;;;;;;;;;;5093830;28;20386;-82
2023/08/18 03:05:15;;;;;;;2.65;2.45;;;;;;;;;;5095418;28;20461;-82
2023/08/18 03:07:41;;;;;;;2.78;2.42;;;;;;;;;;5091182;28;20448;-83
2023/08/18 03:10:07;;;;;;;2.58;2.38;;;;;;;;;;5078895;28;20375;-82
2023/08/18 03:12:33;;;;;;;2.97;2.70;;;;;;;;;;5093566;28;20382;-82
2023/08/18 03:14:59;;;;;;;3.17;2.60;;;;;;;;;;5099416;28;20546;-83
2023/08/18 03:17:25;;;;;;;3.60;2.67;;;;;;;;;;5098511;28;20390;-82
2023/08/18 03:19:51;;;;;;;2.92;2.72;;;;;;;;;;5099234;28;20390;-83
2023/08/18 03:22:17;;;;;;;2.80;2.60;;;;;;;;;;5099174;28;20854;-82
2023/08/18 03:24:43;;;;;;;2.67;2.40;;;;;;;;;;5099894;28;20386;-82
2023/08/18 03:27:09;;;;;;;3.50;2.65;;;;;;;;;;5100020;28;20477;-83
2023/08/18 03:29:35;;;;;;;3.42;2.70;;;;;;;;;;5094154;28;20415;-82
2023/08/18 03:32:01;;;;;;;2.97;2.78;;;;;;;;;;5091697;28;20414;-82
2023/08/18 03:34:27;;;;;;;3.00;2.70;;;;;;;;;;5093033;28;20393;-82
2023/08/18 03:36:53;;;;;;;3.15;2.85;;;;;;;;;;5099925;28;20431;-83
2023/08/18 03:39:19;;;;;;;2.90;2.70;;;;;;;;;;5097192;28;20378;-83
2023/08/18 03:41:45;;;;;;;3.35;2.63;;;;;;;;;;5084662;28;20382;-83
2023/08/18 03:44:12;;;;;;;3.13;2.83;;;;;;;;;;5091289;28;20833;-83
2023/08/18 03:46:38;;;;;;;3.97;3.00;;;;;;;;;;5081557;28;20419;-85
2023/08/18 03:49:05;;;;;;;2.95;2.75;;;;;;;;;;5091244;28;20451;-82
2023/08/18 03:51:32;;;;;;;3.22;2.72;;;;;;;;;;5082202;28;20378;-82
2023/08/18 03:53:58;;;;;;;3.33;2.60;;;;;;;;;;5098332;28;20682;-82
2023/08/18 03:56:24;;;;;;;3.47;2.85;;;;;;;;;;5090317;28;20545;-82
2023/08/18 03:58:50;;;;;;;3.72;2.78;;;;;;;;;;5080675;28;20443;-84
2023/08/18 04:01:16;;;;;;;3.20;2.60;;;;;;;;;;5097362;28;20382;-84
2023/08/18 04:03:43;;;;;;;2.60;2.40;;;;;;;;;;5095198;28;20390;-84
2023/08/18 04:06:09;;;;;;;3.20;2.90;;;;;;;;;;5084777;28;20386;-84
2023/08/18 04:08:39;;;;;;;2.90;2.60;;;;;;;;;;5083330;28;20971;-84
2023/08/18 04:11:05;;;;;;;2.97;2.72;;;;;;;;;;5092023;28;20389;-84
2023/08/18 04:13:32;;;;;;;3.07;2.30;;;;;;;;;;5087022;28;20386;-84
2023/08/18 04:15:58;;;;;;;3.42;2.78;;;;;;;;;;5066959;28;20384;-84
2023/08/18 04:18:24;;;;;;;3.67;3.30;;;;;;;;;;5090899;28;20427;-84
2023/08/18 04:20:50;;;;;;;2.90;2.47;;;;;;;;;;5078023;28;20380;-84
2023/08/18 04:23:16;;;;;;;2.97;2.60;;;;;;;;;;5094651;28;20390;-85
2023/08/18 04:25:43;;;;;;;3.10;2.70;;;;;;;;;;5087099;28;20384;-84
2023/08/18 04:28:09;;;;;;;2.70;2.50;;;;;;;;;;5090866;28;20428;-84
2023/08/18 04:30:35;;;;;;;3.13;2.72;;;;;;;;;;5086840;28;20381;-84
2023/08/18 04:33:01;;;;;;;2.63;2.40;;;;;;;;;;5086381;28;20418;-84
2023/08/18 04:35:27;;;;;;;2.85;2.65;;;;;;;;;;5098091;28;20385;-84
2023/08/18 04:37:53;;;;;;;2.77;2.57;;;;;;;;;;5097803;28;20404;-85
2023/08/18 04:40:19;;;;;;;4.57;3.00;;;;;;;;;;5061291;28;20419;-84
2023/08/18 04:42:45;;;;;;;3.78;3.28;;;;;;;;;;5088988;28;20394;-84
2023/08/18 04:45:11;;;;;;;4.93;4.03;;;;;;;;;;5082989;28;20394;-84
2023/08/18 04:47:37;;;;;;;4.57;3.55;;;;;;;;;;5098185;28;20426;-85
2023/08/18 04:50:05;;;;;;;3.67;3.38;;;;;;;;;;5083135;28;20367;-84
2023/08/18 04:52:31;;;;;;;3.63;3.33;;;;;;;;;;5085790;28;20784;-84
2023/08/18 04:54:57;;;;;;;4.18;3.58;;;;;;;;;;5078155;28;20384;-84
2023/08/18 04:57:23;;;;;;;4.65;3.42;;;;;;;;;;5082774;28;20445;-85
2023/08/18 04:59:49;;;;;;;3.50;3.20;;;;;;;;;;5082853;28;20819;-84
2023/08/18 05:02:15;;;;;;;3.83;3.53;;;;;;;;;;5095452;28;20414;-85
2023/08/18 05:04:41;;;;;;;3.90;3.58;;;;;;;;;;5097650;28;20760;-84
2023/08/18 05:07:07;;;;;;;4.43;3.40;;;;;;;;;;5096831;28;20386;-85
2023/08/18 05:09:34;;;;;;;3.88;3.55;;;;;;;;;;5081578;28;20378;-84
2023/08/18 05:12:00;;;;;;;4.20;3.40;;;;;;;;;;5090309;28;20602;-85
2023/08/18 05:14:26;;;;;;;3.85;3.55;;;;;;;;;;5098554;28;20802;-85
2023/08/18 05:16:52;;;;;;;3.65;3.35;;;;;;;;;;5102700;28;20383;-85
2023/08/18 05:19:18;;;;;;;3.60;3.30;;;;;;;;;;5101704;28;20424;-84
2023/08/18 05:21:44;;;;;;;3.83;3.50;;;;;;;;;;5099015;28;20377;-85
2023/08/18 05:24:10;;;;;;;3.50;3.03;;;;;;;;;;5099073;28;21005;-85
2023/08/18 05:26:36;;;;;;;3.78;3.38;;;;;;;;;;5098721;28;20381;-85
2023/08/18 05:29:02;;;;;;;4.53;3.40;;;;;;;;;;5094972;28;20823;-85
2023/08/18 05:31:29;;;;;;;3.72;3.10;;;;;;;;;;5098079;28;20382;-85
2023/08/18 05:33:55;;;;;;;3.80;3.30;;;;;;;;;;5097694;28;20427;-85
2023/08/18 05:36:21;;;;;;;3.58;3.28;;;;;;;;;;5098634;28;20406;-84
2023/08/18 05:38:47;;;;;;;3.40;3.00;;;;;;;;;;5085028;28;20828;-85
2023/08/18 05:41:13;;;;;;;4.33;3.00;;;;;;;;;;5085098;28;20459;-85
2023/08/18 05:43:40;;;;;;;3.83;3.00;;;;;;;;;;5082586;28;20381;-85
2023/08/18 05:46:06;;;;;;;4.03;3.13;;;;;;;;;;5098125;28;20712;-85
2023/08/18 05:48:32;;;;;;;3.20;2.90;;;;;;;;;;5097294;28;20409;-84
2023/08/18 05:50:59;;;;;;;3.05;2.85;;;;;;;;;;5097776;28;20390;-85
2023/08/18 05:53:25;;;;;;;3.08;2.78;;;;;;;;;;5096630;28;20864;-85
2023/08/18 05:55:52;;;;;;;5.80;3.22;;;;;;;;;;5085422;28;20383;-85
2023/08/18 05:58:18;;;;;;;3.43;3.13;;;;;;;;;;5080986;28;20473;-85
2023/08/18 06:00:44;;;;;;;4.20;3.10;;;;;;;;;;5077562;28;20729;-85
2023/08/18 06:03:10;;;;;;;3.70;2.90;;;;;;;;;;5090255;28;20752;-85
2023/08/18 06:05:36;;;;;;;2.78;2.50;;;;;;;;;;5084098;28;20694;-85
2023/08/18 06:08:02;;;;;;;3.20;2.90;;;;;;;;;;5097817;28;20414;-85
2023/08/18 06:10:28;;;;;;;3.08;2.60;;;;;;;;;;5085938;28;20380;-85
2023/08/18 06:12:54;;;;;;;3.00;2.70;;;;;;;;;;5080208;28;20386;-85
2023/08/18 06:15:21;;;;;;;3.40;3.10;;;;;;;;;;5092855;28;20378;-85
2023/08/18 06:17:50;;;;;;;3.50;2.33;;;;;;;;;;5097706;28;20392;-85
2023/08/18 06:20:17;;;;;;;3.80;2.50;;;;;;;;;;5097797;28;20459;-84
2023/08/18 06:22:43;;;;;;;3.65;2.85;;;;;;;;;;5097297;28;20375;-84
2023/08/18 06:25:09;;;;;;;3.20;2.87;;;;;;;;;;5098095;28;20851;-84
2023/08/18 06:27:36;;;;;;;4.30;3.20;;;;;;;;;;5085620;28;20443;-84
2023/08/18 06:30:02;;;;;;;3.88;3.20;;;;;;;;;;5092724;28;20386;-84
2023/08/18 06:32:28;;;;;;;3.15;2.85;;;;;;;;;;5097553;28;20390;-85
2023/08/18 06:34:54;;;;;;;4.77;2.57;;;;;;;;;;5098796;28;20398;-84
2023/08/18 06:37:20;;;;;;;3.22;2.45;;;;;;;;;;5090014;28;20408;-84
2023/08/18 06:39:46;;;;;;;2.92;2.67;;;;;;;;;;5093072;28;20382;-84
2023/08/18 06:42:13;;;;;;;3.33;2.80;;;;;;;;;;5091994;28;20429;-85
2023/08/18 06:44:39;;;;;;;3.00;2.70;;;;;;;;;;5091774;28;20439;-84
2023/08/18 06:47:05;;;;;;;3.37;2.70;;;;;;;;;;5097925;28;20827;-84
2023/08/18 06:49:31;;;;;;;3.45;2.80;;;;;;;;;;5098000;28;20465;-84
2023/08/18 06:51:57;;;;;;;3.63;2.78;;;;;;;;;;5098601;28;20440;-84
2023/08/18 06:54:23;;;;;;;5.05;3.47;;;;;;;;;;5091343;28;20378;-84
2023/08/18 06:56:49;;;;;;;2.92;2.55;;;;;;;;;;5086632;28;20486;-85
2023/08/18 06:59:15;;;;;;;3.90;3.00;;;;;;;;;;5085761;28;20747;-84
2023/08/18 07:01:41;;;;;;;2.90;2.70;;;;;;;;;;5097654;28;20416;-84
2023/08/18 07:04:07;;;;;;;3.08;2.78;;;;;;;;;;5100266;28;20385;-84
2023/08/18 07:06:33;;;;;;;3.50;2.80;;;;;;;;;;5095321;28;20773;-84
2023/08/18 07:09:00;;;;;;;3.30;3.00;;;;;;;;;;5082803;28;20553;-84
2023/08/18 07:11:26;;;;;;;2.58;2.38;;;;;;;;;;5090799;28;20380;-84
2023/08/18 07:13:52;;;;;;;2.72;2.53;;;;;;;;;;5079517;28;20395;-84
2023/08/18 07:16:18;;;;;;;2.67;2.33;;;;;;;;;;5082907;28;20457;-84
2023/08/18 07:18:44;;;;;;;2.67;2.40;;;;;;;;;;5092584;28;20471;-84
2023/08/18 07:21:10;;;;;;;2.70;2.50;;;;;;;;;;5098568;28;20435;-84
2023/08/18 07:23:36;;;;;;;3.57;2.50;;;;;;;;;;5098952;28;20823;-85
2023/08/18 07:26:03;;;;;;;2.47;2.28;;;;;;;;;;5067465;28;20455;-84
2023/08/18 07:28:29;;;;;;;3.07;2.17;;;;;;;;;;5084791;28;20455;-84
2023/08/18 07:30:55;;;;;;;2.67;2.42;;;;;;;;;;5069120;28;20396;-84
2023/08/18 07:33:21;;;;;;;2.70;2.50;;;;;;;;;;5078434;28;20879;-85
2023/08/18 07:35:47;;;;;;;2.40;2.20;;;;;;;;;;5088988;28;20469;-84
2023/08/18 07:38:13;;;;;;;2.30;2.10;;;;;;;;;;5082964;28;20419;-84
2023/08/18 07:40:39;;;;;;;2.97;2.40;;;;;;;;;;5086626;28;20898;-84
2023/08/18 07:43:05;;;;;;;3.10;2.30;;;;;;;;;;5098726;28;20439;-84
2023/08/18 07:45:31;;;;;;;3.15;2.40;;;;;;;;;;5093772;28;20382;-85
2023/08/18 07:47:57;;;;;;;5.38;2.40;;;;;;;;;;5097845;28;20501;-84
2023/08/18 07:50:23;;;;;;;2.88;2.47;;;;;;;;;;5094462;28;20384;-85
2023/08/18 07:52:49;;;;;;;2.75;2.50;;;;;;;;;;5088007;28;20882;-84
2023/08/18 07:55:15;;;;;;;2.78;2.50;;;;;;;;;;5096352;28;20374;-84
2023/08/18 07:57:41;;;;;;;2.50;2.30;;;;;;;;;;5078270;28;20371;-85
2023/08/18 08:00:16;;;;;;;5.40;2.90;;;;;;;;;;5062122;28;20419;-84
2023/08/18 08:02:42;;;;;;;4.28;2.65;;;;;;;;;;5087067;28;20404;-85
2023/08/18 08:05:08;;;;;;;3.28;2.72;;;;;;;;;;5095909;28;20715;-85
2023/08/18 08:07:34;;;;;;;4.43;2.85;;;;;;;;;;5089238;28;20448;-84
2023/08/18 08:10:04;;;;;;;2.72;2.40;;;;;;;;;;5081812;28;20391;-84
2023/08/18 08:12:30;;;;;;;4.53;2.70;;;;;;;;;;5091703;28;20437;-84
2023/08/18 08:14:57;;;;;;;3.70;2.83;;;;;;;;;;5084376;28;20374;-84
2023/08/18 08:17:23;;;;;;;3.58;2.40;;;;;;;;;;5083093;28;20383;-85
2023/08/18 08:19:50;;;;;;;3.88;2.75;;;;;;;;;;5081858;28;20758;-84
2023/08/18 08:22:16;;;;;;;2.88;2.58;;;;;;;;;;5098614;28;20386;-85
2023/08/18 08:24:42;;;;;;;4.25;2.63;;;;;;;;;;5098737;28;20378;-84
2023/08/18 08:27:08;;;;;;;4.85;2.97;;;;;;;;;;5098771;28;20414;-85
2023/08/18 08:29:35;;;;;;;4.18;2.40;;;;;;;;;;5087163;28;20440;-85
2023/08/18 08:32:01;;;;;;;3.35;2.55;;;;;;;;;;5098700;28;20874;-84
2023/08/18 08:34:27;;;;;;;5.20;2.85;;;;;;;;;;5099314;28;20392;-85
2023/08/18 08:36:53;;;;;;;5.35;2.35;;;;;;;;;;5099291;28;20385;-84
2023/08/18 08:39:19;;;;;;;4.00;2.58;;;;;;;;;;5098810;28;20437;-84
2023/08/18 08:41:45;;;;;;;3.47;2.65;;;;;;;;;;5095695;28;20464;-85
2023/08/18 08:44:11;;;;;;;3.40;2.83;;;;;;;;;;5087002;28;20794;-84
2023/08/18 08:46:38;;;;;;;4.88;2.60;;;;;;;;;;5096856;28;20409;-84
2023/08/18 08:49:07;;;;;;;2.90;2.38;;;;;;;;;;5078563;28;20784;-84
2023/08/18 08:51:38;;;;;;;4.60;2.58;;;;;;;;;;5078116;28;20378;-84
2023/08/18 08:54:05;;;;;;;4.03;2.50;;;;;;;;;;5084324;28;20382;-84
2023/08/18 08:56:32;;;;;;;3.22;2.42;;;;;;;;;;5074077;28;20409;-85
2023/08/18 08:58:58;;;;;;;4.10;2.58;;;;;;;;;;5084006;28;20420;-84
2023/08/18 09:01:24;;;;;;;4.03;2.45;;;;;;;;;;5095334;28;21236;-84
2023/08/18 09:03:51;;;;;;;4.13;2.80;;;;;;;;;;5094804;28;20389;-84
2023/08/18 09:06:17;;;;;;;2.78;2.15;;;;;;;;;;5069365;28;20418;-84
2023/08/18 09:08:43;;;;;;;4.50;2.40;;;;;;;;;;5081220;28;20426;-84
2023/08/18 09:11:10;;;;;;;4.68;2.63;;;;;;;;;;5081475;28;20382;-84
2023/08/18 09:13:36;;;;;;;4.18;2.55;;;;;;;;;;5095646;28;20855;-82
2023/08/18 09:16:09;;;;;;;3.78;2.35;;;;;;;;;;5079735;28;20407;-84
2023/08/18 09:18:35;;;;;;;5.35;2.80;;;;;;;;;;5081208;28;20401;-84
2023/08/18 09:21:06;;;;;;;7.10;2.00;;;;;;;;;;5088087;28;20385;-84
2023/08/18 09:23:32;;;;;;;4.13;2.13;;;;;;;;;;5089822;28;20378;-84
2023/08/18 09:25:58;;;;;;;3.90;1.90;;;;;;;;;;5085655;28;20425;-84
2023/08/18 09:28:24;;;;;;;3.20;2.30;;;;;;;;;;5089399;28;20417;-84
2023/08/18 09:30:51;;;;;;;3.78;2.38;;;;;;;;;;5084039;28;20391;-81
2023/08/18 09:33:16;;;;;;;4.03;2.00;;;;;;;;;;5094465;28;20374;-84
2023/08/18 09:35:42;;;;;;;3.80;2.10;;;;;;;;;;5097937;28;20912;-84
2023/08/18 09:38:13;;;;;;;4.93;2.25;;;;;;;;;;5095121;28;20378;-84
2023/08/18 09:40:39;;;;;;;4.03;2.05;;;;;;;;;;5095900;28;20384;-84
2023/08/18 09:43:05;;;;;;;4.80;2.13;;;;;;;;;;5078313;28;20704;-84
2023/08/18 09:45:32;;;;;;;2.90;2.20;;;;;;;;;;5091918;28;20389;-84
2023/08/18 09:47:58;;;;;;;4.30;2.10;;;;;;;;;;5084099;28;20482;-84
2023/08/18 09:50:25;;;;;;;4.10;2.10;;;;;;;;;;5077284;28;20409;-83
2023/08/18 09:52:57;;;;;;;3.80;1.90;;;;;;;;;;5097019;28;20378;-83
2023/08/18 09:55:26;;;;;;;3.25;2.03;;;;;;;;;;5082439;28;20390;-83
2023/08/18 09:58:18;;;;;;;3.95;2.03;;;;;;;;;;5079330;28;20419;-83
2023/08/18 10:00:46;;;;;;;4.70;2.42;;;;;;;;;;5077331;28;20398;-83
2023/08/18 10:03:17;;;;;;;4.00;1.90;;;;;;;;;;5085998;28;20455;-83
2023/08/18 10:05:46;;;;;;;4.00;2.05;;;;;;;;;;5095016;28;20378;-83
2023/08/18 10:08:12;;;;;;;3.70;2.10;;;;;;;;;;5097089;28;20418;-83
2023/08/18 10:10:38;;;;;;;3.78;1.95;;;;;;;;;;5084116;28;20391;-83
2023/08/18 10:13:07;;;;;;;3.95;2.05;;;;;;;;;;5095060;28;20385;-83
2023/08/18 10:15:33;;;;;;;3.72;2.25;;;;;;;;;;5086511;28;20408;-83
2023/08/18 10:17:59;;;;;;;3.15;2.10;;;;;;;;;;5090115;28;20448;-83
2023/08/18 10:20:27;;;;;;;3.47;2.20;;;;;;;;;;5085532;28;20446;-83
2023/08/18 10:22:54;;;;;;;5.10;2.10;;;;;;;;;;5096100;28;20492;-83
2023/08/18 10:25:29;;;;;;;4.30;2.20;;;;;;;;;;5093592;28;20386;-83
2023/08/18 10:27:55;;;;;;;3.95;2.30;;;;;;;;;;5085485;28;20535;-84
2023/08/18 10:30:21;;;;;;;3.30;1.90;;;;;;;;;;5100636;28;20410;-83
2023/08/18 10:32:47;;;;;;;3.10;1.95;;;;;;;;;;5099607;28;20386;-83
2023/08/18 10:35:16;;;;;;;4.07;2.20;;;;;;;;;;5062846;28;20392;-83
2023/08/18 10:37:43;;;;;;;4.18;2.30;;;;;;;;;;5091479;28;20430;-83
2023/08/18 10:40:09;;;;;;;4.85;2.30;;;;;;;;;;5095885;28;20384;-83
2023/08/18 10:42:36;;;;;;;3.23;2.10;;;;;;;;;;5090188;28;20393;-83
2023/08/18 10:45:05;;;;;;;3.15;2.13;;;;;;;;;;5090031;28;20407;-83
2023/08/18 10:47:32;;;;;;;2.83;2.05;;;;;;;;;;5093087;28;20891;-83
2023/08/18 10:50:04;;;;;;;4.47;2.33;;;;;;;;;;5084659;28;20391;-83
2023/08/18 10:52:31;;;;;;;2.97;1.92;;;;;;;;;;5081649;28;20737;-83
2023/08/18 10:54:57;;;;;;;3.40;2.05;;;;;;;;;;5083164;28;20387;-83
2023/08/18 10:57:23;;;;;;;3.40;2.20;;;;;;;;;;5090651;28;20393;-83
2023/08/18 10:59:50;;;;;;;2.83;1.98;;;;;;;;;;5088290;28;20391;-83
2023/08/18 11:02:16;;;;;;;2.38;2.03;;;;;;;;;;5083409;28;20378;-84
2023/08/18 11:04:42;;;;;;;3.17;2.10;;;;;;;;;;5100525;28;20389;-83
2023/08/18 11:07:08;;;;;;;2.63;2.05;;;;;;;;;;5085918;28;20425;-83
2023/08/18 11:09:36;;;;;;;4.57;2.63;;;;;;;;;;5077678;28;20493;-83
2023/08/18 11:12:03;;;;;;;3.83;2.53;;;;;;;;;;5096263;28;20371;-84
2023/08/18 11:14:29;;;;;;;4.25;2.15;;;;;;;;;;5100763;28;20836;-84
2023/08/18 11:16:55;;;;;;;4.78;2.17;;;;;;;;;;5087468;28;20367;-84
2023/08/18 11:19:21;;;;;;;3.70;2.10;;;;;;;;;;5094112;28;20381;-83
2023/08/18 11:21:47;;;;;;;3.72;2.05;;;;;;;;;;5085796;28;20831;-84
2023/08/18 11:24:13;;;;;;;3.65;2.10;;;;;;;;;;5100270;28;20374;-84
2023/08/18 11:26:39;;;;;;;5.68;2.05;;;;;;;;;;5095574;28;20368;-84
2023/08/18 11:29:10;;;;;;;3.83;2.20;;;;;;;;;;5090614;28;20740;-83
2023/08/18 11:31:36;;;;;;;6.55;2.30;;;;;;;;;;5096836;28;20416;-83
2023/08/18 11:34:02;;;;;;;2.83;2.08;;;;;;;;;;5080706;28;20387;-83
2023/08/18 11:36:33;;;;;;;4.43;2.10;;;;;;;;;;5095501;28;20386;-84
2023/08/18 11:39:08;;;;;;;4.05;1.80;;;;;;;;;;5099236;28;20376;-83
2023/08/18 11:41:38;;;;;;;4.45;1.80;;;;;;;;;;5098280;28;20468;-84
2023/08/18 11:44:05;;;;;;;5.82;1.95;;;;;;;;;;5088389;28;20370;-84
2023/08/18 11:46:31;;;;;;;4.13;1.83;;;;;;;;;;5087343;28;20741;-84
2023/08/18 11:48:59;;;;;;;3.33;1.70;;;;;;;;;;5094242;28;20430;-84
2023/08/18 11:51:25;;;;;;;4.47;1.90;;;;;;;;;;5090924;28;20373;-84
2023/08/18 11:53:51;;;;;;;3.50;1.90;;;;;;;;;;5079015;28;20384;-84
2023/08/18 11:56:19;;;;;;;4.38;1.80;;;;;;;;;;5078935;28;20387;-84
2023/08/18 11:58:45;;;;;;;5.18;2.33;;;;;;;;;;5083548;28;20396;-83
2023/08/18 12:01:11;;;;;;;6.47;2.40;;;;;;;;;;5099388;28;20789;-83
2023/08/18 12:03:39;;;;;;;2.60;1.95;;;;;;;;;;5084702;28;20415;-84
2023/08/18 12:06:05;;;;;;;4.20;1.88;;;;;;;;;;5098542;28;20390;-83
2023/08/18 12:08:31;;;;;;;3.63;1.58;;;;;;;;;;5098936;28;20566;-84
2023/08/18 12:10:59;;;;;;;4.53;1.70;;;;;;;;;;5084379;28;20513;-83
2023/08/18 12:13:31;;;;;;;3.50;1.88;;;;;;;;;;5095839;28;20381;-83
2023/08/18 12:15:57;;;;;;;4.15;1.65;;;;;;;;;;5085264;28;20380;-84
2023/08/18 12:18:23;;;;;;;2.45;2.15;;;;;;;;;;5095726;28;20382;-84
2023/08/18 12:20:49;;;;;;;4.75;2.13;;;;;;;;;;5098970;28;20790;-84
2023/08/18 12:23:15;;;;;;;3.50;1.80;;;;;;;;;;5061691;28;20388;-83
2023/08/18 12:25:42;;;;;;;2.90;2.10;;;;;;;;;;5089329;28;20417;-83
2023/08/18 12:28:08;;;;;;;3.65;1.90;;;;;;;;;;5098729;28;20402;-84
2023/08/18 12:30:34;;;;;;;3.60;2.10;;;;;;;;;;5098221;28;20370;-84
2023/08/18 12:33:00;;;;;;;6.18;2.22;;;;;;;;;;5098407;28;20393;-83
2023/08/18 12:35:26;;;;;;;5.45;2.05;;;;;;;;;;5098719;28;20389;-84
2023/08/18 12:37:53;;;;;;;4.80;2.08;;;;;;;;;;5098320;28;20410;-83
2023/08/18 12:40:19;;;;;;;3.65;2.15;;;;;;;;;;5093002;28;20372;-83
2023/08/18 12:42:45;;;;;;;4.53;2.10;;;;;;;;;;5089339;28;20770;-84
2023/08/18 12:45:11;;;;;;;4.40;2.10;;;;;;;;;;5098415;28;20510;-83
2023/08/18 12:47:37;;;;;;;2.97;1.83;;;;;;;;;;5098127;28;20429;-83
2023/08/18 12:50:04;;;;;;;5.05;2.33;;;;;;;;;;5097620;28;20859;-83
2023/08/18 12:52:30;;;;;;;6.22;2.53;;;;;;;;;;5071795;28;20403;-83
2023/08/18 12:54:56;;;;;;;5.15;2.00;;;;;;;;;;5060156;28;20954;-83
2023/08/18 12:57:22;;;;;;;3.47;2.00;;;;;;;;;;5083023;28;20444;-83
2023/08/18 12:59:48;;;;;;;3.85;1.90;;;;;;;;;;5086993;28;20395;-83
2023/08/18 13:02:14;;;;;;;2.95;2.00;;;;;;;;;;5093627;28;20883;-83
2023/08/18 13:04:40;;;;;;;3.90;2.00;;;;;;;;;;5082146;28;20457;-83
2023/08/18 13:07:06;;;;;;;3.33;1.60;;;;;;;;;;5086817;28;20438;-83
2023/08/18 13:09:33;;;;;;;4.97;2.60;;;;;;;;;;5086889;28;20502;-83
2023/08/18 13:12:00;;;;;;;3.97;2.08;;;;;;;;;;5087605;28;20458;-83
2023/08/18 13:14:26;;;;;;;3.38;2.15;;;;;;;;;;5091791;28;20386;-84
2023/08/18 13:16:52;;;;;;;4.17;1.87;;;;;;;;;;5085691;28;20378;-83
2023/08/18 13:19:19;;;;;;;4.03;1.97;;;;;;;;;;5083536;28;20376;-83
2023/08/18 13:21:45;;;;;;;4.68;1.83;;;;;;;;;;5083132;28;20453;-83
2023/08/18 13:24:11;;;;;;;3.45;1.70;;;;;;;;;;5097581;28;20835;-83
2023/08/18 13:26:39;;;;;;;3.92;1.80;;;;;;;;;;5097319;28;20929;-83
2023/08/18 13:29:05;;;;;;;2.90;1.58;;;;;;;;;;5097020;28;20461;-83
2023/08/18 13:31:31;;;;;;;4.30;1.70;;;;;;;;;;5083531;28;20475;-83
2023/08/18 13:33:57;;;;;;;2.72;1.75;;;;;;;;;;5098092;28;20420;-83
2023/08/18 13:36:23;;;;;;;4.05;1.95;;;;;;;;;;5096921;28;20389;-83
2023/08/18 13:38:49;;;;;;;2.58;1.88;;;;;;;;;;5083540;28;20439;-83
2023/08/18 13:41:15;;;;;;;3.90;1.90;;;;;;;;;;5097440;28;20454;-84
2023/08/18 13:43:41;;;;;;;3.70;1.80;;;;;;;;;;5094054;28;20460;-83
2023/08/18 13:46:07;;;;;;;5.85;1.92;;;;;;;;;;5068287;28;20446;-83
2023/08/18 13:48:33;;;;;;;2.55;1.70;;;;;;;;;;5079463;28;20461;-83
2023/08/18 13:50:59;;;;;;;3.17;1.80;;;;;;;;;;5086810;28;20385;-83
2023/08/18 13:53:29;;;;;;;4.43;1.70;;;;;;;;;;5097011;28;20531;-83
2023/08/18 13:55:55;;;;;;;4.05;2.00;;;;;;;;;;5082373;28;20382;-84
2023/08/18 13:58:21;;;;;;;4.35;2.22;;;;;;;;;;5076717;28;20395;-84
2023/08/18 14:00:47;;;;;;;2.28;1.80;;;;;;;;;;5058547;28;20392;-84
2023/08/18 14:03:13;;;;;;;4.43;2.00;;;;;;;;;;5084546;28;20780;-84
2023/08/18 14:05:42;;;;;;;3.37;1.90;;;;;;;;;;5083809;28;20444;-83
2023/08/18 14:08:08;;;;;;;3.92;1.67;;;;;;;;;;5092966;28;20450;-83
2023/08/18 14:10:36;;;;;;;5.07;1.73;;;;;;;;;;5082842;28;20379;-84
2023/08/18 14:13:03;;;;;;;4.78;1.98;;;;;;;;;;5092264;28;20379;-84
2023/08/18 14:15:29;;;;;;;4.03;1.50;;;;;;;;;;5092419;28;20379;-84
2023/08/18 14:17:55;;;;;;;5.97;1.85;;;;;;;;;;5091158;28;20421;-84
2023/08/18 14:20:21;;;;;;;2.45;1.50;;;;;;;;;;5100407;28;20855;-83
2023/08/18 14:22:51;;;;;;;4.80;1.80;;;;;;;;;;5097540;28;20417;-84
2023/08/18 14:25:19;;;;;;;3.70;1.95;;;;;;;;;;5093101;28;20375;-84
2023/08/18 14:27:45;;;;;;;3.47;1.67;;;;;;;;;;5092622;28;20482;-83
2023/08/18 14:30:11;;;;;;;4.03;1.80;;;;;;;;;;5080060;28;20423;-84
2023/08/18 14:32:37;;;;;;;4.93;1.85;;;;;;;;;;5079831;28;20433;-84
2023/08/18 14:35:04;;;;;;;4.13;1.77;;;;;;;;;;5097090;28;20382;-84
2023/08/18 14:37:33;;;;;;;3.50;1.92;;;;;;;;;;5100175;28;20408;-84
2023/08/18 14:39:59;;;;;;;2.20;1.70;;;;;;;;;;5099803;28;20370;-83